| time (UTC) | temp F | wind direction | speed MPH | gust MPH | rain 1hr in | rain 24hr in | rain mn in | humidity % | barometer mb |
| 20260503204909 | 64 | 193 | 13.0 | 22.0 | 0.00 | 0.00 | 0.00 | 42 | |
| 20260503204407 | 64 | 211 | 11.0 | 19.0 | 0.00 | 0.00 | 0.00 | 43 | |
| 20260503203904 | 64 | 188 | 10.0 | 16.0 | 0.00 | 0.00 | 0.00 | 46 | |
| 20260503203401 | 65 | 205 | 11.0 | 19.0 | 0.00 | 0.00 | 0.00 | 45 | |
| 20260503202858 | 64 | 218 | 7.0 | 10.0 | 0.00 | 0.00 | 0.00 | 47 | |
| 20260503202356 | 64 | 216 | 13.0 | 19.0 | 0.00 | 0.00 | 0.00 | 46 | |
| 20260503201855 | 64 | 222 | 10.0 | 16.0 | 0.00 | 0.00 | 0.00 | 45 | |
| 20260503201351 | 63 | 217 | 8.0 | 13.0 | 0.00 | 0.00 | 0.00 | 48 | |
| 20260503200849 | 63 | 157 | 16.0 | 19.0 | 0.00 | 0.00 | 0.00 | 47 | |
| 20260503200344 | 63 | 254 | 11.0 | 23.0 | 0.00 | 0.00 | 0.00 | 46 | |
| 20260503195842 | 63 | 219 | 13.0 | 22.0 | 0.00 | 0.00 | 0.00 | 47 | |
| 20260503195338 | 64 | 207 | 9.0 | 15.0 | 0.00 | 0.00 | 0.00 | 45 | |
| 20260503194836 | 64 | 196 | 10.0 | 26.0 | 0.00 | 0.00 | 0.00 | 46 | |
| 20260503194331 | 63 | 188 | 8.0 | 18.0 | 0.00 | 0.00 | 0.00 | 45 | |
| 20260503193828 | 64 | 226 | 13.0 | 18.0 | 0.00 | 0.00 | 0.00 | 44 | |
| 20260503193324 | 63 | 224 | 9.0 | 23.0 | 0.00 | 0.00 | 0.00 | 45 | |
| 20260503192820 | 64 | 190 | 14.0 | 23.0 | 0.00 | 0.00 | 0.00 | 43 | |
| 20260503192315 | 64 | 246 | 11.0 | 18.0 | 0.00 | 0.00 | 0.00 | 44 | |
| 20260503191812 | 64 | 207 | 15.0 | 23.0 | 0.00 | 0.00 | 0.00 | 42 | |
| 20260503191309 | 64 | 215 | 14.0 | 21.0 | 0.00 | 0.00 | 0.00 | 41 | |
| 20260503190806 | 64 | 216 | 12.0 | 18.0 | 0.00 | 0.00 | 0.00 | 41 | |
| 20260503190303 | 64 | 243 | 16.0 | 24.0 | 0.00 | 0.00 | 0.00 | 40 | |
| 20260503185800 | 63 | 248 | 15.0 | 19.0 | 0.00 | 0.00 | 0.00 | 44 | |
| 20260503185255 | 63 | 202 | 10.0 | 17.0 | 0.00 | 0.00 | 0.00 | 44 | |
| 20260503184755 | 63 | 218 | 15.0 | 25.0 | 0.00 | 0.00 | 0.00 | 43 | |
| 20260503184252 | 62 | 214 | 7.0 | 16.0 | 0.00 | 0.00 | 0.00 | 46 | |
| 20260503183748 | 63 | 227 | 13.0 | 18.0 | 0.00 | 0.00 | 0.00 | 47 | |
| 20260503183246 | 62 | 195 | 8.0 | 11.0 | 0.00 | 0.00 | 0.00 | 48 | |
| 20260503182743 | 62 | 204 | 14.0 | 18.0 | 0.00 | 0.00 | 0.00 | 47 | |
| 20260503182242 | 62 | 204 | 8.0 | 16.0 | 0.00 | 0.00 | 0.00 | 47 | |
| 20260503181738 | 62 | 209 | 8.0 | 17.0 | 0.00 | 0.00 | 0.00 | 49 | |
| 20260503181235 | 61 | 177 | 12.0 | 17.0 | 0.00 | 0.00 | 0.00 | 49 | |
| 20260503180731 | 61 | 190 | 10.0 | 22.0 | 0.00 | 0.00 | 0.00 | 49 | |
| 20260503180230 | 61 | 215 | 11.0 | 17.0 | 0.00 | 0.00 | 0.00 | 49 | |
| 20260503175726 | 61 | 213 | 13.0 | 16.0 | 0.00 | 0.00 | 0.00 | 49 | |
| 20260503175224 | 60 | 184 | 14.0 | 21.0 | 0.00 | 0.00 | 0.00 | 49 | |
| 20260503174720 | 60 | 194 | 11.0 | 18.0 | 0.00 | 0.00 | 0.00 | 50 | |
| 20260503174218 | 59 | 200 | 14.0 | 17.0 | 0.00 | 0.00 | 0.00 | 52 | |
| 20260503173713 | 59 | 193 | 15.0 | 23.0 | 0.00 | 0.00 | 0.00 | 51 | |
| 20260503173209 | 59 | 194 | 13.0 | 19.0 | 0.00 | 0.00 | 0.00 | 51 | |
| 20260503172706 | 59 | 258 | 17.0 | 19.0 | 0.00 | 0.00 | 0.00 | 51 | |
| 20260503172203 | 58 | 250 | 14.0 | 18.0 | 0.00 | 0.00 | 0.00 | 53 | |
| 20260503171700 | 58 | 202 | 12.0 | 22.0 | 0.00 | 0.00 | 0.00 | 52 | |
| 20260503171157 | 58 | 198 | 15.0 | 19.0 | 0.00 | 0.00 | 0.00 | 51 | |
| 20260503170654 | 58 | 212 | 12.0 | 17.0 | 0.00 | 0.00 | 0.00 | 52 | |
| 20260503170151 | 57 | 204 | 7.0 | 18.0 | 0.00 | 0.00 | 0.00 | 53 | |
| 20260503160112 | 52 | 232 | 6.0 | 15.0 | 0.00 | 0.00 | 0.00 | 70 | |
| 20260503150542 | 55 | 209 | 8.0 | 11.0 | 0.00 | 0.00 | 0.00 | 56 | |
| 20260503130932 | 52 | 227 | 7.0 | 11.0 | 0.00 | 0.00 | 0.00 | 56 | |
| 20260503130430 | 52 | 199 | 8.0 | 14.0 | 0.00 | 0.00 | 0.00 | 56 | |
| 20260503110332 | 48 | 231 | 5.0 | 10.0 | 0.00 | 0.00 | 0.00 | 54 | |
| 20260503100258 | 47 | 219 | 3.0 | 8.0 | 0.00 | 0.00 | 0.00 | 54 | |
| 20260503090217 | 46 | 199 | 5.0 | 8.0 | 0.00 | 0.00 | 0.00 | 55 | |
| 20260503081144 | 47 | 221 | 5.0 | 7.0 | 0.00 | 0.00 | 0.00 | 54 | |
| 20260503080640 | 47 | 205 | 3.0 | 6.0 | 0.00 | 0.00 | 0.00 | 54 | |
| 20260503080137 | 47 | 227 | 3.0 | 7.0 | 0.00 | 0.00 | 0.00 | 54 | |
| 20260503072614 | 47 | 188 | 6.0 | 9.0 | 0.00 | 0.00 | 0.00 | 53 | |
| 20260503072111 | 47 | 217 | 4.0 | 6.0 | 0.00 | 0.00 | 0.00 | 53 | |
| 20260503071608 | 47 | 223 | 6.0 | 8.0 | 0.00 | 0.00 | 0.00 | 53 | |
| 20260503071105 | 47 | 216 | 3.0 | 7.0 | 0.00 | 0.00 | 0.00 | 53 | |
| 20260503070601 | 47 | 197 | 3.0 | 8.0 | 0.00 | 0.00 | 0.00 | 53 | |
| 20260503055020 | 47 | 214 | 4.0 | 7.0 | 0.00 | 0.00 | 0.00 | 52 | |
| 20260503054516 | 47 | 226 | 4.0 | 6.0 | 0.00 | 0.00 | 0.00 | 52 | |
| 20260503054014 | 47 | 206 | 6.0 | 8.0 | 0.00 | 0.00 | 0.00 | 52 | |
| 20260503053512 | 47 | 226 | 5.0 | 7.0 | 0.00 | 0.00 | 0.00 | 51 | |
| 20260503053009 | 47 | 226 | 5.0 | 7.0 | 0.00 | 0.00 | 0.00 | 51 | |
| 20260503052506 | 47 | 212 | 4.0 | 7.0 | 0.00 | 0.00 | 0.00 | 51 | |
| 20260503052001 | 47 | 222 | 4.0 | 7.0 | 0.00 | 0.00 | 0.00 | 51 | |
| 20260503051457 | 47 | 212 | 5.0 | 11.0 | 0.00 | 0.00 | 0.00 | 51 | |
| 20260503050955 | 47 | 232 | 3.0 | 8.0 | 0.00 | 0.00 | 0.00 | 51 | |
| 20260503050450 | 48 | 227 | 4.0 | 8.0 | 0.00 | 0.00 | 0.00 | 51 | |
| 20260503045948 | 48 | 207 | 5.0 | 7.0 | 0.00 | 0.00 | 0.00 | 51 | |
| 20260503045446 | 48 | 191 | 4.0 | 6.0 | 0.00 | 0.00 | 0.00 | 50 | |
| 20260503044942 | 48 | 213 | 5.0 | 7.0 | 0.00 | 0.00 | 0.00 | 50 | |
| 20260503044439 | 48 | 188 | 6.0 | 8.0 | 0.00 | 0.00 | 0.00 | 50 | |
| 20260503043937 | 48 | 218 | 4.0 | 7.0 | 0.00 | 0.00 | 0.00 | 50 | |
| 20260503043433 | 48 | 218 | 4.0 | 8.0 | 0.00 | 0.00 | 0.00 | 50 | |
| 20260503042929 | 48 | 193 | 4.0 | 7.0 | 0.00 | 0.00 | 0.00 | 51 | |
| 20260503042426 | 48 | 192 | 4.0 | 8.0 | 0.00 | 0.00 | 0.00 | 51 | |
| 20260503041923 | 48 | 195 | 4.0 | 8.0 | 0.00 | 0.00 | 0.00 | 51 | |
| 20260503041420 | 48 | 197 | 2.0 | 6.0 | 0.00 | 0.00 | 0.00 | 51 | |
| 20260503040917 | 48 | 214 | 4.0 | 8.0 | 0.00 | 0.00 | 0.00 | 51 | |
| 20260503040414 | 48 | 202 | 3.0 | 7.0 | 0.00 | 0.00 | 0.00 | 51 | |
| 20260503035912 | 48 | 198 | 4.0 | 4.0 | 0.00 | 0.00 | 0.00 | 51 | |
| 20260503035408 | 48 | 207 | 5.0 | 7.0 | 0.00 | 0.00 | 0.00 | 52 | |
| 20260503034906 | 48 | 194 | 4.0 | 6.0 | 0.00 | 0.00 | 0.00 | 52 | |
| 20260503034403 | 47 | 204 | 4.0 | 4.0 | 0.00 | 0.00 | 0.00 | 52 | |
| 20260503033900 | 47 | 204 | 2.0 | 6.0 | 0.00 | 0.00 | 0.00 | 53 | |
| 20260503033358 | 46 | 197 | 2.0 | 3.0 | 0.00 | 0.00 | 0.00 | 55 | |
| 20260503032855 | 46 | 189 | 1.0 | 2.0 | 0.00 | 0.00 | 0.00 | 57 | |
| 20260503032354 | 45 | 185 | 2.0 | 3.0 | 0.00 | 0.00 | 0.00 | 57 | |
| 20260503031851 | 45 | 175 | 2.0 | 3.0 | 0.00 | 0.00 | 0.00 | 57 | |
| 20260503031349 | 45 | 173 | 1.0 | 1.0 | 0.00 | 0.00 | 0.00 | 57 | |
| 20260503030845 | 45 | 186 | 1.0 | 2.0 | 0.00 | 0.00 | 0.00 | 58 | |
| 20260503030341 | 45 | 169 | 0.0 | 0.0 | 0.00 | 0.00 | 0.00 | 57 | |
| 20260503025838 | 45 | 166 | 0.0 | 0.0 | 0.00 | 0.00 | 0.00 | 57 | |
| 20260503025336 | 45 | 166 | 0.0 | 0.0 | 0.00 | 0.00 | 0.00 | 56 | |
| 20260503024833 | 45 | 167 | 0.0 | 0.0 | 0.00 | 0.00 | 0.00 | 56 | |
| 20260503024329 | 45 | 165 | 0.0 | 1.0 | 0.00 | 0.00 | 0.00 | 56 | |
| 20260503023826 | 44 | 165 | 0.0 | 0.0 | 0.00 | 0.00 | 0.00 | 56 | |
| 20260503023323 | 44 | 165 | 0.0 | 0.0 | 0.00 | 0.00 | 0.00 | 54 | |
| 20260503022820 | 45 | 165 | 0.0 | 0.0 | 0.00 | 0.00 | 0.00 | 53 | |
| 20260503022320 | 46 | 165 | 0.0 | 0.0 | 0.00 | 0.00 | 0.00 | 54 | |
| 20260503021816 | 46 | 165 | 0.0 | 0.0 | 0.00 | 0.00 | 0.00 | 52 | |
| 20260503021313 | 47 | 165 | 0.0 | 0.0 | 0.00 | 0.00 | 0.00 | 51 | |
| 20260503020811 | 47 | 165 | 0.0 | 1.0 | 0.00 | 0.00 | 0.00 | 50 | |
| 20260503020308 | 48 | 178 | 0.0 | 0.0 | 0.00 | 0.00 | 0.00 | 48 | |
| 20260503015804 | 48 | 178 | 0.0 | 0.0 | 0.00 | 0.00 | 0.00 | 46 | |
| 20260503015302 | 49 | 171 | 1.0 | 1.0 | 0.00 | 0.00 | 0.00 | 47 | |
| 20260503014757 | 49 | 180 | 1.0 | 2.0 | 0.00 | 0.00 | 0.00 | 46 | |
| 20260503014255 | 49 | 199 | 2.0 | 2.0 | 0.00 | 0.00 | 0.00 | 45 | |
| 20260503013752 | 50 | 211 | 2.0 | 3.0 | 0.00 | 0.00 | 0.00 | 44 | |
| 20260503013249 | 50 | 185 | 1.0 | 2.0 | 0.00 | 0.00 | 0.00 | 44 | |
| 20260503012746 | 51 | 184 | 1.0 | 3.0 | 0.00 | 0.00 | 0.00 | 43 | |
| 20260503012244 | 51 | 182 | 1.0 | 3.0 | 0.00 | 0.00 | 0.00 | 42 | |
| 20260503011740 | 51 | 189 | 2.0 | 3.0 | 0.00 | 0.00 | 0.00 | 42 | |
| 20260503011238 | 51 | 198 | 1.0 | 3.0 | 0.00 | 0.00 | 0.00 | 41 | |
| 20260503010733 | 52 | 192 | 0.0 | 2.0 | 0.00 | 0.00 | 0.00 | 41 | |
| 20260503010231 | 52 | 198 | 3.0 | 3.0 | 0.00 | 0.00 | 0.00 | 40 | |
| 20260503005728 | 52 | 200 | 3.0 | 4.0 | 0.00 | 0.00 | 0.00 | 40 | |
| 20260503005225 | 53 | 206 | 3.0 | 3.0 | 0.00 | 0.00 | 0.00 | 39 | |
| 20260503004721 | 53 | 210 | 4.0 | 6.0 | 0.00 | 0.00 | 0.00 | 39 | |
| 20260503004220 | 53 | 222 | 3.0 | 6.0 | 0.00 | 0.00 | 0.00 | 39 | |
| 20260503003717 | 53 | 221 | 4.0 | 6.0 | 0.00 | 0.00 | 0.00 | 38 | |
| 20260503003214 | 53 | 198 | 3.0 | 6.0 | 0.00 | 0.00 | 0.00 | 38 | |
| 20260503002710 | 54 | 211 | 2.0 | 7.0 | 0.00 | 0.00 | 0.00 | 38 | |
| 20260503002207 | 54 | 206 | 3.0 | 6.0 | 0.00 | 0.00 | 0.00 | 38 | |
| 20260503001703 | 54 | 200 | 3.0 | 4.0 | 0.00 | 0.00 | 0.00 | 38 | |
| 20260503001200 | 54 | 215 | 4.0 | 8.0 | 0.00 | 0.00 | 0.00 | 38 | |
| 20260503000658 | 54 | 264 | 6.0 | 8.0 | 0.00 | 0.00 | 0.00 | 38 | |
| 20260503000155 | 54 | 233 | 3.0 | 6.0 | 0.00 | 0.00 | 0.00 | 38 | |
| 20260502235651 | 55 | 244 | 5.0 | 10.0 | 0.00 | 0.00 | 0.00 | 37 | |
| 20260502235149 | 55 | 228 | 6.0 | 9.0 | 0.00 | 0.00 | 0.00 | 37 | |
| 20260502234645 | 55 | 226 | 5.0 | 8.0 | 0.00 | 0.00 | 0.00 | 37 | |
| 20260502234143 | 55 | 264 | 3.0 | 8.0 | 0.00 | 0.00 | 0.00 | 37 | |
| 20260502233639 | 54 | 228 | 5.0 | 7.0 | 0.00 | 0.00 | 0.00 | 37 | |
| 20260502233135 | 54 | 195 | 2.0 | 7.0 | 0.00 | 0.00 | 0.00 | 37 | |
| 20260502232631 | 54 | 206 | 3.0 | 7.0 | 0.00 | 0.00 | 0.00 | 37 | |
| 20260502232129 | 55 | 227 | 5.0 | 8.0 | 0.00 | 0.00 | 0.00 | 36 | |
| 20260502231625 | 55 | 226 | 4.0 | 7.0 | 0.00 | 0.00 | 0.00 | 36 | |
| 20260502231123 | 55 | 232 | 3.0 | 8.0 | 0.00 | 0.00 | 0.00 | 35 | |
| 20260502230621 | 55 | 231 | 4.0 | 7.0 | 0.00 | 0.00 | 0.00 | 36 | |
| 20260502230120 | 55 | 252 | 4.0 | 9.0 | 0.00 | 0.00 | 0.00 | 35 | |
| 20260502225615 | 56 | 225 | 3.0 | 8.0 | 0.00 | 0.00 | 0.00 | 37 | |
| 20260502225112 | 56 | 226 | 4.0 | 9.0 | 0.00 | 0.00 | 0.00 | 38 | |
| 20260502224608 | 55 | 185 | 6.0 | 10.0 | 0.00 | 0.00 | 0.00 | 37 | |
| 20260502224105 | 55 | 201 | 3.0 | 7.0 | 0.00 | 0.00 | 0.00 | 36 | |
| 20260502223603 | 55 | 230 | 7.0 | 9.0 | 0.00 | 0.00 | 0.00 | 36 | |
| 20260502223102 | 55 | 287 | 7.0 | 10.0 | 0.00 | 0.00 | 0.00 | 36 | |
| 20260502222558 | 55 | 298 | 4.0 | 9.0 | 0.00 | 0.00 | 0.00 | 36 | |
| 20260502222054 | 56 | 223 | 6.0 | 8.0 | 0.00 | 0.00 | 0.00 | 36 | |
| 20260502221550 | 56 | 240 | 7.0 | 9.0 | 0.00 | 0.00 | 0.00 | 36 | |
| 20260502221048 | 55 | 224 | 6.0 | 9.0 | 0.00 | 0.00 | 0.00 | 36 | |
| 20260502220543 | 55 | 290 | 2.0 | 3.0 | 0.00 | 0.00 | 0.00 | 37 | |
| 20260502220040 | 55 | 325 | 4.0 | 7.0 | 0.00 | 0.00 | 0.00 | 37 | |
| 20260502215537 | 55 | 235 | 5.0 | 9.0 | 0.00 | 0.00 | 0.00 | 37 | |
| 20260502215034 | 55 | 194 | 6.0 | 8.0 | 0.00 | 0.00 | 0.00 | 37 | |
| 20260502214531 | 55 | 180 | 5.0 | 8.0 | 0.00 | 0.00 | 0.00 | 36 | |
| 20260502214029 | 56 | 218 | 3.0 | 6.0 | 0.00 | 0.00 | 0.00 | 36 | |
| 20260502213525 | 56 | 221 | 4.0 | 9.0 | 0.00 | 0.00 | 0.00 | 36 | |
| 20260502213023 | 56 | 279 | 3.0 | 10.0 | 0.00 | 0.00 | 0.00 | 39 | |
| 20260502212522 | 56 | 285 | 6.0 | 9.0 | 0.00 | 0.00 | 0.00 | 37 | |
| 20260502212019 | 56 | 245 | 7.0 | 9.0 | 0.00 | 0.00 | 0.00 | 36 | |
| 20260502211515 | 55 | 215 | 2.0 | 4.0 | 0.00 | 0.00 | 0.00 | 38 | |
| 20260502211012 | 56 | 234 | 10.0 | 13.0 | 0.00 | 0.00 | 0.00 | 37 | |
| 20260502210509 | 55 | 214 | 4.0 | 8.0 | 0.00 | 0.00 | 0.00 | 38 | |
| 20260502210006 | 56 | 271 | 4.0 | 7.0 | 0.00 | 0.00 | 0.00 | 38 | |
| 20260502205502 | 56 | 336 | 4.0 | 10.0 | 0.00 | 0.00 | 0.00 | 38 | |
| 20260502204959 | 55 | 297 | 5.0 | 7.0 | 0.00 | 0.00 | 0.00 | 39 |